sensor_id;sensor_type;location;lat;lon;timestamp;pressure;altitude;pressure_sealevel;temperature;humidity
46944;BME280;32678;43.852;25.952;2023-02-03T00:01:42;101318.94;;;3.16;78.66
46944;BME280;32678;43.852;25.952;2023-02-03T00:06:39;101322.38;;;3.18;78.53
46944;BME280;32678;43.852;25.952;2023-02-03T00:11:37;101317.13;;;3.01;79.62
46944;BME280;32678;43.852;25.952;2023-02-03T00:16:36;101308.63;;;3.28;78.35
46944;BME280;32678;43.852;25.952;2023-02-03T00:21:32;101318.16;;;3.29;78.04
46944;BME280;32678;43.852;25.952;2023-02-03T00:26:29;101326.81;;;3.34;77.88
46944;BME280;32678;43.852;25.952;2023-02-03T00:31:29;101334.47;;;3.13;79.38
46944;BME280;32678;43.852;25.952;2023-02-03T00:36:26;101338.72;;;3.01;79.37
46944;BME280;32678;43.852;25.952;2023-02-03T00:41:26;101339.50;;;2.94;79.57
46944;BME280;32678;43.852;25.952;2023-02-03T00:46:26;101339.53;;;2.96;79.66
46944;BME280;32678;43.852;25.952;2023-02-03T00:51:23;101335.25;;;2.98;79.30
46944;BME280;32678;43.852;25.952;2023-02-03T00:56:23;101352.63;;;3.19;78.62
46944;BME280;32678;43.852;25.952;2023-02-03T01:01:19;101354.34;;;3.18;78.61
46944;BME280;32678;43.852;25.952;2023-02-03T01:06:19;101353.47;;;3.18;78.58
46944;BME280;32678;43.852;25.952;2023-02-03T01:11:16;101350.09;;;3.26;78.25
46944;BME280;32678;43.852;25.952;2023-02-03T01:16:14;101344.06;;;3.29;77.96
46944;BME280;32678;43.852;25.952;2023-02-03T01:21:12;101345.03;;;3.46;77.71
46944;BME280;32678;43.852;25.952;2023-02-03T01:26:12;101345.06;;;3.54;77.37
46944;BME280;32678;43.852;25.952;2023-02-03T01:31:11;101344.84;;;3.19;78.35
46944;BME280;32678;43.852;25.952;2023-02-03T01:36:09;101341.41;;;3.23;78.02
46944;BME280;32678;43.852;25.952;2023-02-03T01:41:06;101344.69;;;2.94;79.00
46944;BME280;32678;43.852;25.952;2023-02-03T01:46:03;101347.50;;;3.25;78.41
46944;BME280;32678;43.852;25.952;2023-02-03T01:51:03;101352.63;;;3.19;78.69
46944;BME280;32678;43.852;25.952;2023-02-03T01:56:00;101356.19;;;3.33;78.34
46944;BME280;32678;43.852;25.952;2023-02-03T02:00:59;101363.13;;;3.37;78.21
46944;BME280;32678;43.852;25.952;2023-02-03T02:05:58;101372.56;;;3.29;78.65
46944;BME280;32678;43.852;25.952;2023-02-03T02:10:59;101354.53;;;3.44;77.51
46944;BME280;32678;43.852;25.952;2023-02-03T02:15:57;101368.41;;;3.51;77.69
46944;BME280;32678;43.852;25.952;2023-02-03T02:21:06;101360.66;;;3.60;77.39
46944;BME280;32678;43.852;25.952;2023-02-03T02:26:23;101364.09;;;3.56;77.63
46944;BME280;32678;43.852;25.952;2023-02-03T02:31:35;101363.16;;;3.43;78.18
46944;BME280;32678;43.852;25.952;2023-02-03T02:36:37;101364.94;;;3.53;77.58
46944;BME280;32678;43.852;25.952;2023-02-03T02:41:39;101381.44;;;3.72;77.74
46944;BME280;32678;43.852;25.952;2023-02-03T02:46:39;101390.13;;;3.78;76.83
46944;BME280;32678;43.852;25.952;2023-02-03T02:51:38;101385.81;;;3.74;77.15
46944;BME280;32678;43.852;25.952;2023-02-03T02:56:38;101393.63;;;3.86;76.63
46944;BME280;32678;43.852;25.952;2023-02-03T03:01:36;101387.50;;;3.69;76.96
46944;BME280;32678;43.852;25.952;2023-02-03T03:06:39;101388.34;;;3.68;76.97
46944;BME280;32678;43.852;25.952;2023-02-03T03:11:39;101394.38;;;3.63;77.83
46944;BME280;32678;43.852;25.952;2023-02-03T03:16:38;101383.97;;;3.58;78.40
46944;BME280;32678;43.852;25.952;2023-02-03T03:21:40;101385.69;;;3.58;78.63
46944;BME280;32678;43.852;25.952;2023-02-03T03:26:38;101395.97;;;3.39;79.86
46944;BME280;32678;43.852;25.952;2023-02-03T03:31:37;101412.50;;;3.58;79.23
46944;BME280;32678;43.852;25.952;2023-02-03T03:36:37;101415.97;;;3.59;79.20
46944;BME280;32678;43.852;25.952;2023-02-03T03:41:38;101428.16;;;3.73;78.08
46944;BME280;32678;43.852;25.952;2023-02-03T03:46:39;101422.91;;;3.63;78.75
46944;BME280;32678;43.852;25.952;2023-02-03T03:51:38;101429.94;;;3.85;77.76
46944;BME280;32678;43.852;25.952;2023-02-03T03:56:36;101428.19;;;3.79;78.06
46944;BME280;32678;43.852;25.952;2023-02-03T04:01:35;101438.53;;;3.78;78.13
46944;BME280;32678;43.852;25.952;2023-02-03T04:06:33;101436.84;;;3.80;77.96
46944;BME280;32678;43.852;25.952;2023-02-03T04:11:31;101436.75;;;3.68;78.25
46944;BME280;32678;43.852;25.952;2023-02-03T04:16:47;101436.84;;;3.83;78.67
46944;BME280;32678;43.852;25.952;2023-02-03T04:21:43;101440.25;;;3.74;78.81
46944;BME280;32678;43.852;25.952;2023-02-03T04:26:40;101446.28;;;3.66;79.51
46944;BME280;32678;43.852;25.952;2023-02-03T04:31:36;101449.78;;;3.77;78.80
46944;BME280;32678;43.852;25.952;2023-02-03T04:36:34;101458.41;;;3.70;78.91
46944;BME280;32678;43.852;25.952;2023-02-03T04:41:31;101464.38;;;3.63;79.17
46944;BME280;32678;43.852;25.952;2023-02-03T04:46:27;101474.00;;;3.76;78.74
46944;BME280;32678;43.852;25.952;2023-02-03T04:51:24;101479.13;;;3.68;79.25
46944;BME280;32678;43.852;25.952;2023-02-03T04:56:21;101476.66;;;3.85;78.46
46944;BME280;32678;43.852;25.952;2023-02-03T05:01:18;101483.47;;;3.69;79.19
46944;BME280;32678;43.852;25.952;2023-02-03T05:06:16;101467.84;;;3.60;78.92
46944;BME280;32678;43.852;25.952;2023-02-03T05:11:17;101488.66;;;3.71;79.32
46944;BME280;32678;43.852;25.952;2023-02-03T05:16:14;101491.25;;;3.72;79.03
46944;BME280;32678;43.852;25.952;2023-02-03T05:21:11;101489.44;;;3.62;79.38
46944;BME280;32678;43.852;25.952;2023-02-03T05:26:08;101490.38;;;3.73;79.69
46944;BME280;32678;43.852;25.952;2023-02-03T05:31:04;101497.25;;;3.67;79.93
46944;BME280;32678;43.852;25.952;2023-02-03T05:36:02;101515.47;;;3.73;79.95
46944;BME280;32678;43.852;25.952;2023-02-03T05:40:59;101529.34;;;3.82;80.27
46944;BME280;32678;43.852;25.952;2023-02-03T05:46:14;101536.16;;;3.68;79.66
46944;BME280;32678;43.852;25.952;2023-02-03T05:51:11;101536.88;;;3.49;80.79
46944;BME280;32678;43.852;25.952;2023-02-03T05:56:07;101541.28;;;3.59;81.19
46944;BME280;32678;43.852;25.952;2023-02-03T06:01:04;101525.69;;;3.52;81.45
46944;BME280;32678;43.852;25.952;2023-02-03T06:06:01;101553.47;;;3.69;81.12
46944;BME280;32678;43.852;25.952;2023-02-03T06:10:59;101552.63;;;3.73;80.85
46944;BME280;32678;43.852;25.952;2023-02-03T06:15:55;101547.50;;;3.79;80.90
46944;BME280;32678;43.852;25.952;2023-02-03T06:20:52;101563.09;;;3.87;80.75
46944;BME280;32678;43.852;25.952;2023-02-03T06:25:49;101578.72;;;3.90;80.61
46944;BME280;32678;43.852;25.952;2023-02-03T06:30:49;101586.56;;;3.99;80.59
46944;BME280;32678;43.852;25.952;2023-02-03T06:35:46;101586.59;;;4.04;80.47
46944;BME280;32678;43.852;25.952;2023-02-03T06:40:45;101592.53;;;3.92;80.66
46944;BME280;32678;43.852;25.952;2023-02-03T06:45:43;101600.31;;;3.89;80.70
46944;BME280;32678;43.852;25.952;2023-02-03T06:50:41;101600.31;;;3.89;81.15
46944;BME280;32678;43.852;25.952;2023-02-03T06:55:38;101600.34;;;3.90;81.33
46944;BME280;32678;43.852;25.952;2023-02-03T07:00:36;101606.31;;;3.83;81.55
46944;BME280;32678;43.852;25.952;2023-02-03T07:05:32;101608.03;;;3.80;81.13
46944;BME280;32678;43.852;25.952;2023-02-03T07:10:31;101624.53;;;3.89;80.96
46944;BME280;32678;43.852;25.952;2023-02-03T07:15:28;101626.00;;;3.60;82.41
46944;BME280;32678;43.852;25.952;2023-02-03T07:20:25;101620.09;;;3.75;82.92
46944;BME280;32678;43.852;25.952;2023-02-03T07:25:24;101635.66;;;3.78;81.52
46944;BME280;32678;43.852;25.952;2023-02-03T07:30:22;101650.16;;;3.58;82.99
46944;BME280;32678;43.852;25.952;2023-02-03T07:35:18;101652.84;;;3.67;83.73
46944;BME280;32678;43.852;25.952;2023-02-03T07:40:15;101659.75;;;3.63;83.59
46944;BME280;32678;43.852;25.952;2023-02-03T07:45:13;101653.88;;;3.81;82.34
46944;BME280;32678;43.852;25.952;2023-02-03T07:50:11;101668.59;;;3.85;82.10
46944;BME280;32678;43.852;25.952;2023-02-03T07:55:10;101662.59;;;3.92;81.91
46944;BME280;32678;43.852;25.952;2023-02-03T08:00:11;101666.13;;;4.02;81.55
46944;BME280;32678;43.852;25.952;2023-02-03T08:05:09;101666.19;;;4.05;81.59
46944;BME280;32678;43.852;25.952;2023-02-03T08:10:11;101685.22;;;4.05;81.78
46944;BME280;32678;43.852;25.952;2023-02-03T08:15:10;101692.94;;;4.02;82.00
46944;BME280;32678;43.852;25.952;2023-02-03T08:20:07;101698.28;;;4.17;80.80
46944;BME280;32678;43.852;25.952;2023-02-03T08:25:04;101685.22;;;4.07;80.68
46944;BME280;32678;43.852;25.952;2023-02-03T08:30:03;101695.78;;;4.31;79.38
46944;BME280;32678;43.852;25.952;2023-02-03T08:35:00;101705.38;;;4.38;77.65
46944;BME280;32678;43.852;25.952;2023-02-03T08:39:58;101696.66;;;4.31;77.80
46944;BME280;32678;43.852;25.952;2023-02-03T08:44:55;101686.38;;;4.50;77.60
46944;BME280;32678;43.852;25.952;2023-02-03T08:49:57;101698.66;;;4.72;76.61
46944;BME280;32678;43.852;25.952;2023-02-03T08:54:56;101707.28;;;4.63;76.08
46944;BME280;32678;43.852;25.952;2023-02-03T08:59:55;101712.56;;;4.77;75.70
46944;BME280;32678;43.852;25.952;2023-02-03T09:04:53;101717.75;;;4.74;76.48
46944;BME280;32678;43.852;25.952;2023-02-03T09:09:52;101726.41;;;4.79;75.56
46944;BME280;32678;43.852;25.952;2023-02-03T09:14:48;101723.88;;;4.90;75.19
46944;BME280;32678;43.852;25.952;2023-02-03T09:19:46;101724.84;;;5.08;74.94
46944;BME280;32678;43.852;25.952;2023-02-03T09:24:47;101727.47;;;5.14;74.97
46944;BME280;32678;43.852;25.952;2023-02-03T09:29:46;101737.81;;;4.98;75.41
46944;BME280;32678;43.852;25.952;2023-02-03T09:34:49;101738.63;;;4.95;75.72
46944;BME280;32678;43.852;25.952;2023-02-03T09:39:46;101725.72;;;5.09;76.13
46944;BME280;32678;43.852;25.952;2023-02-03T09:44:46;101725.81;;;5.32;75.63
46944;BME280;32678;43.852;25.952;2023-02-03T09:49:45;101724.16;;;5.52;75.06
46944;BME280;32678;43.852;25.952;2023-02-03T09:54:46;101720.69;;;5.50;75.68
46944;BME280;32678;43.852;25.952;2023-02-03T09:59:48;101719.00;;;5.65;75.00
46944;BME280;32678;43.852;25.952;2023-02-03T10:04:48;101723.34;;;5.82;73.98
46944;BME280;32678;43.852;25.952;2023-02-03T10:09:50;101722.53;;;5.93;73.21
46944;BME280;32678;43.852;25.952;2023-02-03T10:14:57;101729.50;;;6.08;72.77
46944;BME280;32678;43.852;25.952;2023-02-03T10:19:59;101726.03;;;6.09;71.08
46944;BME280;32678;43.852;25.952;2023-02-03T10:24:59;101712.16;;;6.01;71.27
46944;BME280;32678;43.852;25.952;2023-02-03T10:30:01;101700.88;;;6.03;71.17
46944;BME280;32678;43.852;25.952;2023-02-03T10:40:12;101705.19;;;6.26;72.04
46944;BME280;32678;43.852;25.952;2023-02-03T10:45:12;101693.91;;;6.37;70.79
46944;BME280;32678;43.852;25.952;2023-02-03T10:50:16;101692.16;;;6.51;71.82
46944;BME280;32678;43.852;25.952;2023-02-03T10:55:29;101683.47;;;6.63;72.47
46944;BME280;32678;43.852;25.952;2023-02-03T11:00:29;101682.56;;;6.72;70.66
46944;BME280;32678;43.852;25.952;2023-02-03T11:05:26;101673.84;;;6.82;67.99
46944;BME280;32678;43.852;25.952;2023-02-03T11:10:27;101663.34;;;7.06;64.43
46944;BME280;32678;43.852;25.952;2023-02-03T11:15:25;101662.38;;;7.24;63.58
46944;BME280;32678;43.852;25.952;2023-02-03T11:20:24;101661.50;;;7.32;60.05
46944;BME280;32678;43.852;25.952;2023-02-03T11:25:26;101656.19;;;7.46;60.31
46944;BME280;32678;43.852;25.952;2023-02-03T11:30:25;101651.78;;;7.54;60.01
46944;BME280;32678;43.852;25.952;2023-02-03T11:35:26;101637.78;;;7.66;57.13
46944;BME280;32678;43.852;25.952;2023-02-03T11:40:24;101623.88;;;7.67;55.60
46944;BME280;32678;43.852;25.952;2023-02-03T11:45:23;101623.84;;;7.70;55.86
46944;BME280;32678;43.852;25.952;2023-02-03T11:50:22;101610.53;;;8.00;55.40
46944;BME280;32678;43.852;25.952;2023-02-03T11:55:29;101615.88;;;7.87;56.42
46944;BME280;32678;43.852;25.952;2023-02-03T12:00:30;101607.13;;;7.92;55.06
46944;BME280;32678;43.852;25.952;2023-02-03T12:05:42;101604.38;;;8.10;54.28
46944;BME280;32678;43.852;25.952;2023-02-03T12:10:48;101604.31;;;8.15;52.43
46944;BME280;32678;43.852;25.952;2023-02-03T12:15:54;101600.97;;;7.98;54.54
46944;BME280;32678;43.852;25.952;2023-02-03T12:20:57;101596.53;;;8.09;54.69
46944;BME280;32678;43.852;25.952;2023-02-03T12:26:05;101589.56;;;8.06;53.93
46944;BME280;32678;43.852;25.952;2023-02-03T12:31:12;101595.56;;;8.17;50.62
46944;BME280;32678;43.852;25.952;2023-02-03T12:36:12;101586.97;;;8.06;52.82
46944;BME280;32678;43.852;25.952;2023-02-03T12:41:12;101581.81;;;7.97;53.04
46944;BME280;32678;43.852;25.952;2023-02-03T12:46:11;101582.69;;;7.98;51.93
46944;BME280;32678;43.852;25.952;2023-02-03T12:51:11;101588.00;;;7.90;53.46
46944;BME280;32678;43.852;25.952;2023-02-03T12:56:13;101580.22;;;7.82;54.21
46944;BME280;32678;43.852;25.952;2023-02-03T13:01:15;101583.56;;;7.97;54.91
46944;BME280;32678;43.852;25.952;2023-02-03T13:06:17;101562.81;;;7.84;53.10
46944;BME280;32678;43.852;25.952;2023-02-03T13:11:19;101563.53;;;7.99;53.06
46944;BME280;32678;43.852;25.952;2023-02-03T13:16:24;101565.38;;;7.89;54.39
46944;BME280;32678;43.852;25.952;2023-02-03T13:21:22;101560.97;;;7.96;55.41
46944;BME280;32678;43.852;25.952;2023-02-03T13:26:27;101557.50;;;7.94;56.69
46944;BME280;32678;43.852;25.952;2023-02-03T13:31:34;101549.66;;;7.92;57.88
46944;BME280;32678;43.852;25.952;2023-02-03T13:41:52;101548.00;;;7.85;57.77
46944;BME280;32678;43.852;25.952;2023-02-03T13:46:50;101534.97;;;7.82;58.83
46944;BME280;32678;43.852;25.952;2023-02-03T13:51:48;101527.97;;;7.89;59.59
46944;BME280;32678;43.852;25.952;2023-02-03T13:56:52;101523.00;;;7.60;60.52
46944;BME280;32678;43.852;25.952;2023-02-03T14:01:50;101528.09;;;7.76;59.61
46944;BME280;32678;43.852;25.952;2023-02-03T14:12:12;101524.78;;;7.56;55.79
46944;BME280;32678;43.852;25.952;2023-02-03T14:22:30;101518.00;;;7.34;60.70
46944;BME280;32678;43.852;25.952;2023-02-03T14:27:28;101516.97;;;7.53;61.25
46944;BME280;32678;43.852;25.952;2023-02-03T14:32:26;101517.06;;;7.38;62.06
46944;BME280;32678;43.852;25.952;2023-02-03T14:37:49;101522.28;;;7.43;63.26
46944;BME280;32678;43.852;25.952;2023-02-03T14:42:54;101521.34;;;7.48;63.19
46944;BME280;32678;43.852;25.952;2023-02-03T14:48:10;101513.63;;;7.37;63.57
46944;BME280;32678;43.852;25.952;2023-02-03T14:53:15;101529.28;;;7.36;65.03
46944;BME280;32678;43.852;25.952;2023-02-03T14:58:19;101522.56;;;7.02;65.83
46944;BME280;32678;43.852;25.952;2023-02-03T15:03:22;101546.19;;;6.74;65.36
46944;BME280;32678;43.852;25.952;2023-02-03T15:13:37;101545.50;;;6.21;64.93
46944;BME280;32678;43.852;25.952;2023-02-03T15:18:35;101544.69;;;5.97;65.15
46944;BME280;32678;43.852;25.952;2023-02-03T15:23:46;101546.44;;;5.91;65.37
46944;BME280;32678;43.852;25.952;2023-02-03T15:28:52;101532.53;;;5.81;65.14
46944;BME280;32678;43.852;25.952;2023-02-03T15:33:49;101542.06;;;5.43;66.48
46944;BME280;32678;43.852;25.952;2023-02-03T15:38:48;101536.88;;;5.29;66.44
46944;BME280;32678;43.852;25.952;2023-02-03T15:43:45;101538.56;;;5.04;66.33
46944;BME280;32678;43.852;25.952;2023-02-03T15:48:45;101531.59;;;4.99;66.88
46944;BME280;32678;43.852;25.952;2023-02-03T15:53:46;101537.72;;;5.16;66.34
46944;BME280;32678;43.852;25.952;2023-02-03T15:58:45;101539.44;;;5.02;66.50
46944;BME280;32678;43.852;25.952;2023-02-03T16:03:42;101529.00;;;4.94;66.82
46944;BME280;32678;43.852;25.952;2023-02-03T16:08:42;101542.81;;;4.76;67.46
46944;BME280;32678;43.852;25.952;2023-02-03T16:13:41;101530.75;;;5.01;67.56
46944;BME280;32678;43.852;25.952;2023-02-03T16:18:47;101530.78;;;5.24;65.77
46944;BME280;32678;43.852;25.952;2023-02-03T16:23:48;101529.88;;;5.08;65.79
46944;BME280;32678;43.852;25.952;2023-02-03T16:28:54;101517.81;;;5.26;64.63
46944;BME280;32678;43.852;25.952;2023-02-03T16:34:12;101510.84;;;5.18;65.38
46944;BME280;32678;43.852;25.952;2023-02-03T16:39:28;101499.59;;;5.19;64.60
46944;BME280;32678;43.852;25.952;2023-02-03T16:44:44;101476.16;;;4.88;65.80
46944;BME280;32678;43.852;25.952;2023-02-03T16:49:58;101485.75;;;5.31;63.51
46944;BME280;32678;43.852;25.952;2023-02-03T16:55:32;101472.75;;;5.13;63.88
46944;BME280;32678;43.852;25.952;2023-02-03T17:00:29;101443.28;;;5.03;62.26
46944;BME280;32678;43.852;25.952;2023-02-03T17:05:26;101462.34;;;5.16;62.00
46944;BME280;32678;43.852;25.952;2023-02-03T17:10:22;101454.53;;;5.25;61.76
46944;BME280;32678;43.852;25.952;2023-02-03T17:15:20;101460.59;;;5.30;60.80
46944;BME280;32678;43.852;25.952;2023-02-03T17:20:16;101460.59;;;5.04;61.18
46944;BME280;32678;43.852;25.952;2023-02-03T17:25:13;101450.22;;;5.03;61.01
46944;BME280;32678;43.852;25.952;2023-02-03T17:30:10;101449.34;;;5.10;59.95
46944;BME280;32678;43.852;25.952;2023-02-03T17:35:08;101440.69;;;5.06;60.46
46944;BME280;32678;43.852;25.952;2023-02-03T17:40:05;101427.69;;;5.03;60.07
46944;BME280;32678;43.852;25.952;2023-02-03T17:45:20;101424.22;;;4.88;61.35
46944;BME280;32678;43.852;25.952;2023-02-03T17:50:35;101413.78;;;4.85;61.39
46944;BME280;32678;43.852;25.952;2023-02-03T17:55:50;101407.75;;;4.89;59.89
46944;BME280;32678;43.852;25.952;2023-02-03T18:00:47;101399.06;;;4.94;59.66
46944;BME280;32678;43.852;25.952;2023-02-03T18:05:49;101391.28;;;4.90;59.13
46944;BME280;32678;43.852;25.952;2023-02-03T18:10:46;101378.28;;;4.76;59.13
46944;BME280;32678;43.852;25.952;2023-02-03T18:15:42;101383.50;;;4.77;58.90
46944;BME280;32678;43.852;25.952;2023-02-03T18:20:39;101380.00;;;4.54;58.22
46944;BME280;32678;43.852;25.952;2023-02-03T18:25:36;101376.56;;;4.54;57.78
46944;BME280;32678;43.852;25.952;2023-02-03T18:30:33;101386.88;;;4.31;58.25
46944;BME280;32678;43.852;25.952;2023-02-03T18:35:31;101383.47;;;4.44;57.22
46944;BME280;32678;43.852;25.952;2023-02-03T18:40:28;101373.06;;;4.55;57.08
46944;BME280;32678;43.852;25.952;2023-02-03T18:45:26;101363.56;;;4.58;57.43
46944;BME280;32678;43.852;25.952;2023-02-03T18:50:49;101357.50;;;4.58;56.99
46944;BME280;32678;43.852;25.952;2023-02-03T18:55:45;101354.91;;;4.62;55.70
46944;BME280;32678;43.852;25.952;2023-02-03T19:00:43;101340.19;;;4.63;55.51
46944;BME280;32678;43.852;25.952;2023-02-03T19:05:40;101332.41;;;4.76;55.10
46944;BME280;32678;43.852;25.952;2023-02-03T19:10:37;101331.53;;;4.90;54.75
46944;BME280;32678;43.852;25.952;2023-02-03T19:20:47;101308.16;;;4.91;53.94
46944;BME280;32678;43.852;25.952;2023-02-03T19:25:48;101308.16;;;4.91;53.64
46944;BME280;32678;43.852;25.952;2023-02-03T19:30:45;101299.47;;;4.95;54.46
46944;BME280;32678;43.852;25.952;2023-02-03T19:35:42;101271.78;;;4.87;54.51
46944;BME280;32678;43.852;25.952;2023-02-03T19:40:43;101284.78;;;4.71;54.21
46944;BME280;32678;43.852;25.952;2023-02-03T19:45:40;101269.22;;;4.58;54.33
46944;BME280;32678;43.852;25.952;2023-02-03T19:50:37;101263.13;;;4.41;54.85
46944;BME280;32678;43.852;25.952;2023-02-03T19:55:35;101236.31;;;4.32;55.00
46944;BME280;32678;43.852;25.952;2023-02-03T20:00:33;101252.75;;;4.21;55.69
46944;BME280;32678;43.852;25.952;2023-02-03T20:05:30;101242.38;;;4.13;55.65
46944;BME280;32678;43.852;25.952;2023-02-03T20:10:27;101243.22;;;4.17;55.77
46944;BME280;32678;43.852;25.952;2023-02-03T20:15:27;101244.97;;;4.21;55.88
46944;BME280;32678;43.852;25.952;2023-02-03T20:20:24;101244.09;;;4.37;55.45
46944;BME280;32678;43.852;25.952;2023-02-03T20:25:21;101239.75;;;3.93;56.72
46944;BME280;32678;43.852;25.952;2023-02-03T20:30:18;101239.75;;;4.07;56.37
46944;BME280;32678;43.852;25.952;2023-02-03T20:35:15;101244.97;;;4.04;56.05
46944;BME280;32678;43.852;25.952;2023-02-03T20:40:16;101233.72;;;4.04;56.52
46944;BME280;32678;43.852;25.952;2023-02-03T20:45:13;101206.88;;;3.83;56.69
46944;BME280;32678;43.852;25.952;2023-02-03T20:50:11;101200.81;;;4.06;56.47
46944;BME280;32678;43.852;25.952;2023-02-03T20:55:11;101206.91;;;4.03;56.63
46944;BME280;32678;43.852;25.952;2023-02-03T21:00:13;101211.19;;;3.71;57.95
46944;BME280;32678;43.852;25.952;2023-02-03T21:05:18;101194.75;;;3.70;58.30
46944;BME280;32678;43.852;25.952;2023-02-03T21:10:19;101192.16;;;3.61;58.65
46944;BME280;32678;43.852;25.952;2023-02-03T21:15:17;101174.88;;;3.69;58.47
46944;BME280;32678;43.852;25.952;2023-02-03T21:20:20;101168.81;;;3.78;58.40
46944;BME280;32678;43.852;25.952;2023-02-03T21:25:24;101165.34;;;3.64;58.70
46944;BME280;32678;43.852;25.952;2023-02-03T21:30:23;101149.78;;;3.73;58.25
46944;BME280;32678;43.852;25.952;2023-02-03T21:35:24;101149.81;;;3.76;58.15
46944;BME280;32678;43.852;25.952;2023-02-03T21:40:24;101143.78;;;4.00;57.62
46944;BME280;32678;43.852;25.952;2023-02-03T21:45:26;101138.56;;;3.84;57.93
46944;BME280;32678;43.852;25.952;2023-02-03T21:50:25;101136.84;;;3.79;58.22
46944;BME280;32678;43.852;25.952;2023-02-03T21:55:21;101131.63;;;3.86;58.08
46944;BME280;32678;43.852;25.952;2023-02-03T22:00:35;101121.25;;;3.82;58.01
46944;BME280;32678;43.852;25.952;2023-02-03T22:05:34;101121.25;;;3.91;57.88
46944;BME280;32678;43.852;25.952;2023-02-03T22:10:31;101116.06;;;3.68;58.27
46944;BME280;32678;43.852;25.952;2023-02-03T22:15:28;101105.72;;;3.65;58.65
46944;BME280;32678;43.852;25.952;2023-02-03T22:20:25;101109.16;;;3.73;58.41
46944;BME280;32678;43.852;25.952;2023-02-03T22:25:22;101103.09;;;3.86;58.37
46944;BME280;32678;43.852;25.952;2023-02-03T22:30:18;101088.38;;;4.11;57.63
46944;BME280;32678;43.852;25.952;2023-02-03T22:35:15;101070.25;;;4.02;57.96
46944;BME280;32678;43.852;25.952;2023-02-03T22:40:16;101073.63;;;4.36;56.84
46944;BME280;32678;43.852;25.952;2023-02-03T22:45:14;101052.88;;;4.39;56.88
46944;BME280;32678;43.852;25.952;2023-02-03T22:50:11;101050.22;;;4.50;56.83
46944;BME280;32678;43.852;25.952;2023-02-03T22:55:10;101032.91;;;4.52;56.36
46944;BME280;32678;43.852;25.952;2023-02-03T23:00:08;101032.91;;;4.52;56.65
46944;BME280;32678;43.852;25.952;2023-02-03T23:05:07;101004.50;;;4.11;57.51
46944;BME280;32678;43.852;25.952;2023-02-03T23:10:04;101024.41;;;4.06;57.66
46944;BME280;32678;43.852;25.952;2023-02-03T23:15:02;101020.00;;;4.32;57.33
46944;BME280;32678;43.852;25.952;2023-02-03T23:20:00;101014.69;;;4.65;56.86
46944;BME280;32678;43.852;25.952;2023-02-03T23:24:56;101009.41;;;4.80;56.61
46944;BME280;32678;43.852;25.952;2023-02-03T23:29:55;101004.25;;;4.71;58.74
46944;BME280;32678;43.852;25.952;2023-02-03T23:34:51;100998.25;;;4.63;62.24
46944;BME280;32678;43.852;25.952;2023-02-03T23:40:07;100993.94;;;4.62;64.25
46944;BME280;32678;43.852;25.952;2023-02-03T23:45:05;100984.38;;;4.69;66.88
46944;BME280;32678;43.852;25.952;2023-02-03T23:50:03;100999.16;;;4.53;68.47
46944;BME280;32678;43.852;25.952;2023-02-03T23:55:01;100977.56;;;4.41;71.81
46944;BME280;32678;43.852;25.952;2023-02-03T23:59:58;100973.31;;;4.29;75.36
